sensor_id;sensor_type;location;lat;lon;timestamp;P1;durP1;ratioP1;P2;durP2;ratioP2
34278;SDS011;20538;51.528;9.942;2024-01-15T00:02:09;14.73;;;5.53;;
34278;SDS011;20538;51.528;9.942;2024-01-15T00:04:38;17.08;;;6.43;;
34278;SDS011;20538;51.528;9.942;2024-01-15T00:07:04;16.02;;;5.32;;
34278;SDS011;20538;51.528;9.942;2024-01-15T00:09:30;13.73;;;5.57;;
34278;SDS011;20538;51.528;9.942;2024-01-15T00:11:56;13.73;;;6.00;;
34278;SDS011;20538;51.528;9.942;2024-01-15T00:14:22;13.15;;;5.57;;
34278;SDS011;20538;51.528;9.942;2024-01-15T00:16:48;10.32;;;4.20;;
34278;SDS011;20538;51.528;9.942;2024-01-15T00:19:16;10.23;;;4.72;;
34278;SDS011;20538;51.528;9.942;2024-01-15T00:21:42;15.52;;;5.85;;
34278;SDS011;20538;51.528;9.942;2024-01-15T00:24:08;12.65;;;5.13;;
34278;SDS011;20538;51.528;9.942;2024-01-15T00:26:33;13.38;;;6.45;;
34278;SDS011;20538;51.528;9.942;2024-01-15T00:28:59;11.20;;;5.75;;
34278;SDS011;20538;51.528;9.942;2024-01-15T00:31:25;10.43;;;5.60;;
34278;SDS011;20538;51.528;9.942;2024-01-15T00:33:51;12.30;;;5.00;;
34278;SDS011;20538;51.528;9.942;2024-01-15T00:36:17;13.73;;;5.63;;
34278;SDS011;20538;51.528;9.942;2024-01-15T00:38:43;14.82;;;5.38;;
34278;SDS011;20538;51.528;9.942;2024-01-15T00:41:09;14.32;;;6.07;;
34278;SDS011;20538;51.528;9.942;2024-01-15T00:43:35;12.57;;;5.60;;
34278;SDS011;20538;51.528;9.942;2024-01-15T00:46:04;13.82;;;4.95;;
34278;SDS011;20538;51.528;9.942;2024-01-15T00:48:30;13.95;;;5.13;;
34278;SDS011;20538;51.528;9.942;2024-01-15T00:50:55;14.25;;;5.00;;
34278;SDS011;20538;51.528;9.942;2024-01-15T00:53:21;9.52;;;4.75;;
34278;SDS011;20538;51.528;9.942;2024-01-15T00:55:47;13.13;;;4.60;;
34278;SDS011;20538;51.528;9.942;2024-01-15T00:58:13;10.18;;;4.00;;
34278;SDS011;20538;51.528;9.942;2024-01-15T01:00:39;10.25;;;4.05;;
34278;SDS011;20538;51.528;9.942;2024-01-15T01:03:05;9.05;;;4.22;;
34278;SDS011;20538;51.528;9.942;2024-01-15T01:05:31;8.57;;;4.72;;
34278;SDS011;20538;51.528;9.942;2024-01-15T01:07:58;7.85;;;3.42;;
34278;SDS011;20538;51.528;9.942;2024-01-15T01:10:23;11.63;;;4.70;;
34278;SDS011;20538;51.528;9.942;2024-01-15T01:12:49;8.48;;;3.53;;
34278;SDS011;20538;51.528;9.942;2024-01-15T01:15:14;10.95;;;4.05;;
34278;SDS011;20538;51.528;9.942;2024-01-15T01:17:41;9.77;;;4.20;;
34278;SDS011;20538;51.528;9.942;2024-01-15T01:20:07;6.32;;;3.13;;
34278;SDS011;20538;51.528;9.942;2024-01-15T01:22:34;4.13;;;3.33;;
34278;SDS011;20538;51.528;9.942;2024-01-15T01:25:02;6.32;;;3.17;;
34278;SDS011;20538;51.528;9.942;2024-01-15T01:27:28;6.63;;;3.28;;
34278;SDS011;20538;51.528;9.942;2024-01-15T01:29:54;8.98;;;3.85;;
34278;SDS011;20538;51.528;9.942;2024-01-15T01:32:20;7.22;;;3.65;;
34278;SDS011;20538;51.528;9.942;2024-01-15T01:34:45;6.07;;;2.67;;
34278;SDS011;20538;51.528;9.942;2024-01-15T01:37:11;8.43;;;3.65;;
34278;SDS011;20538;51.528;9.942;2024-01-15T01:39:43;6.32;;;3.25;;
34278;SDS011;20538;51.528;9.942;2024-01-15T01:42:09;7.15;;;2.90;;
34278;SDS011;20538;51.528;9.942;2024-01-15T01:44:35;10.60;;;3.85;;
34278;SDS011;20538;51.528;9.942;2024-01-15T01:47:01;8.23;;;3.38;;
34278;SDS011;20538;51.528;9.942;2024-01-15T01:49:28;11.35;;;3.05;;
34278;SDS011;20538;51.528;9.942;2024-01-15T01:51:56;8.98;;;3.60;;
34278;SDS011;20538;51.528;9.942;2024-01-15T01:54:23;6.20;;;3.30;;
34278;SDS011;20538;51.528;9.942;2024-01-15T01:56:53;8.30;;;3.65;;
34278;SDS011;20538;51.528;9.942;2024-01-15T01:59:19;6.75;;;3.20;;
34278;SDS011;20538;51.528;9.942;2024-01-15T02:01:46;5.45;;;2.80;;
34278;SDS011;20538;51.528;9.942;2024-01-15T02:04:12;8.60;;;3.85;;
34278;SDS011;20538;51.528;9.942;2024-01-15T02:06:37;6.85;;;3.22;;
34278;SDS011;20538;51.528;9.942;2024-01-15T02:09:03;7.00;;;2.65;;
34278;SDS011;20538;51.528;9.942;2024-01-15T02:11:30;6.65;;;3.38;;
34278;SDS011;20538;51.528;9.942;2024-01-15T02:13:56;5.53;;;2.38;;
34278;SDS011;20538;51.528;9.942;2024-01-15T02:16:22;6.68;;;3.42;;
34278;SDS011;20538;51.528;9.942;2024-01-15T02:18:47;7.05;;;3.40;;
34278;SDS011;20538;51.528;9.942;2024-01-15T02:21:13;5.88;;;3.03;;
34278;SDS011;20538;51.528;9.942;2024-01-15T02:23:39;5.63;;;2.50;;
34278;SDS011;20538;51.528;9.942;2024-01-15T02:26:05;4.47;;;2.17;;
34278;SDS011;20538;51.528;9.942;2024-01-15T02:28:30;4.85;;;1.77;;
34278;SDS011;20538;51.528;9.942;2024-01-15T02:30:57;7.88;;;3.17;;
34278;SDS011;20538;51.528;9.942;2024-01-15T02:33:23;6.32;;;2.28;;
34278;SDS011;20538;51.528;9.942;2024-01-15T02:35:49;4.57;;;2.80;;
34278;SDS011;20538;51.528;9.942;2024-01-15T02:38:17;5.28;;;2.13;;
34278;SDS011;20538;51.528;9.942;2024-01-15T02:40:43;11.32;;;3.17;;
34278;SDS011;20538;51.528;9.942;2024-01-15T02:43:09;6.47;;;2.30;;
34278;SDS011;20538;51.528;9.942;2024-01-15T02:45:35;5.85;;;2.00;;
34278;SDS011;20538;51.528;9.942;2024-01-15T02:48:01;13.30;;;3.28;;
34278;SDS011;20538;51.528;9.942;2024-01-15T02:50:26;5.32;;;2.05;;
34278;SDS011;20538;51.528;9.942;2024-01-15T02:52:52;7.60;;;3.58;;
34278;SDS011;20538;51.528;9.942;2024-01-15T02:55:18;7.35;;;2.85;;
34278;SDS011;20538;51.528;9.942;2024-01-15T02:57:43;4.65;;;2.28;;
34278;SDS011;20538;51.528;9.942;2024-01-15T03:00:09;7.00;;;2.53;;
34278;SDS011;20538;51.528;9.942;2024-01-15T03:02:36;7.43;;;2.50;;
34278;SDS011;20538;51.528;9.942;2024-01-15T03:05:08;3.05;;;2.20;;
34278;SDS011;20538;51.528;9.942;2024-01-15T03:07:34;5.15;;;2.65;;
34278;SDS011;20538;51.528;9.942;2024-01-15T03:10:00;10.90;;;2.75;;
34278;SDS011;20538;51.528;9.942;2024-01-15T03:12:26;6.88;;;3.42;;
34278;SDS011;20538;51.528;9.942;2024-01-15T03:14:52;6.60;;;2.20;;
34278;SDS011;20538;51.528;9.942;2024-01-15T03:17:18;5.22;;;2.22;;
34278;SDS011;20538;51.528;9.942;2024-01-15T03:19:43;3.40;;;1.73;;
34278;SDS011;20538;51.528;9.942;2024-01-15T03:22:09;13.60;;;3.05;;
34278;SDS011;20538;51.528;9.942;2024-01-15T03:24:35;10.82;;;2.10;;
34278;SDS011;20538;51.528;9.942;2024-01-15T03:27:01;7.07;;;3.10;;
34278;SDS011;20538;51.528;9.942;2024-01-15T03:29:27;4.05;;;2.50;;
34278;SDS011;20538;51.528;9.942;2024-01-15T03:31:53;8.60;;;2.67;;
34278;SDS011;20538;51.528;9.942;2024-01-15T03:34:18;5.50;;;2.45;;
34278;SDS011;20538;51.528;9.942;2024-01-15T03:36:44;4.43;;;2.58;;
34278;SDS011;20538;51.528;9.942;2024-01-15T03:39:10;4.93;;;2.80;;
34278;SDS011;20538;51.528;9.942;2024-01-15T03:41:35;4.97;;;2.42;;
34278;SDS011;20538;51.528;9.942;2024-01-15T03:44:01;5.00;;;2.42;;
34278;SDS011;20538;51.528;9.942;2024-01-15T03:46:27;12.10;;;1.98;;
34278;SDS011;20538;51.528;9.942;2024-01-15T03:48:52;11.35;;;2.58;;
34278;SDS011;20538;51.528;9.942;2024-01-15T03:51:18;9.88;;;2.75;;
34278;SDS011;20538;51.528;9.942;2024-01-15T03:53:44;8.27;;;3.05;;
34278;SDS011;20538;51.528;9.942;2024-01-15T03:56:10;5.43;;;2.53;;
34278;SDS011;20538;51.528;9.942;2024-01-15T03:58:35;14.80;;;3.15;;
34278;SDS011;20538;51.528;9.942;2024-01-15T04:01:01;14.13;;;3.47;;
34278;SDS011;20538;51.528;9.942;2024-01-15T04:03:27;6.95;;;2.30;;
34278;SDS011;20538;51.528;9.942;2024-01-15T04:05:52;8.07;;;3.05;;
34278;SDS011;20538;51.528;9.942;2024-01-15T04:08:18;8.05;;;2.47;;
34278;SDS011;20538;51.528;9.942;2024-01-15T04:10:43;8.07;;;3.97;;
34278;SDS011;20538;51.528;9.942;2024-01-15T04:13:09;8.40;;;2.20;;
34278;SDS011;20538;51.528;9.942;2024-01-15T04:15:35;7.10;;;2.92;;
34278;SDS011;20538;51.528;9.942;2024-01-15T04:18:01;9.35;;;2.60;;
34278;SDS011;20538;51.528;9.942;2024-01-15T04:20:28;9.18;;;2.63;;
34278;SDS011;20538;51.528;9.942;2024-01-15T04:22:53;6.63;;;2.53;;
34278;SDS011;20538;51.528;9.942;2024-01-15T04:25:19;6.97;;;2.72;;
34278;SDS011;20538;51.528;9.942;2024-01-15T04:27:45;8.65;;;2.92;;
34278;SDS011;20538;51.528;9.942;2024-01-15T04:30:10;6.53;;;2.15;;
34278;SDS011;20538;51.528;9.942;2024-01-15T04:32:36;9.65;;;2.78;;
34278;SDS011;20538;51.528;9.942;2024-01-15T04:35:02;9.52;;;3.10;;
34278;SDS011;20538;51.528;9.942;2024-01-15T04:37:28;13.00;;;2.25;;
34278;SDS011;20538;51.528;9.942;2024-01-15T04:39:53;11.55;;;2.63;;
34278;SDS011;20538;51.528;9.942;2024-01-15T04:42:20;7.03;;;2.50;;
34278;SDS011;20538;51.528;9.942;2024-01-15T04:44:46;9.60;;;2.58;;
34278;SDS011;20538;51.528;9.942;2024-01-15T04:47:12;3.97;;;1.80;;
34278;SDS011;20538;51.528;9.942;2024-01-15T04:49:38;8.27;;;2.80;;
34278;SDS011;20538;51.528;9.942;2024-01-15T04:52:03;14.82;;;2.25;;
34278;SDS011;20538;51.528;9.942;2024-01-15T04:54:29;10.48;;;3.67;;
34278;SDS011;20538;51.528;9.942;2024-01-15T04:56:54;9.57;;;2.60;;
34278;SDS011;20538;51.528;9.942;2024-01-15T04:59:20;6.13;;;2.53;;
34278;SDS011;20538;51.528;9.942;2024-01-15T05:01:46;5.55;;;2.03;;
34278;SDS011;20538;51.528;9.942;2024-01-15T05:04:12;8.55;;;2.45;;
34278;SDS011;20538;51.528;9.942;2024-01-15T05:06:38;12.07;;;3.28;;
34278;SDS011;20538;51.528;9.942;2024-01-15T05:09:03;5.28;;;2.17;;
34278;SDS011;20538;51.528;9.942;2024-01-15T05:11:29;5.60;;;2.58;;
34278;SDS011;20538;51.528;9.942;2024-01-15T05:13:55;9.93;;;2.47;;
34278;SDS011;20538;51.528;9.942;2024-01-15T05:16:20;12.73;;;2.47;;
34278;SDS011;20538;51.528;9.942;2024-01-15T05:18:46;11.25;;;2.58;;
34278;SDS011;20538;51.528;9.942;2024-01-15T05:21:12;6.75;;;2.35;;
34278;SDS011;20538;51.528;9.942;2024-01-15T05:23:37;8.68;;;2.88;;
34278;SDS011;20538;51.528;9.942;2024-01-15T05:26:03;5.20;;;2.38;;
34278;SDS011;20538;51.528;9.942;2024-01-15T05:28:29;10.93;;;2.72;;
34278;SDS011;20538;51.528;9.942;2024-01-15T05:30:54;3.75;;;2.30;;
34278;SDS011;20538;51.528;9.942;2024-01-15T05:33:21;6.63;;;2.25;;
34278;SDS011;20538;51.528;9.942;2024-01-15T05:35:49;9.40;;;2.05;;
34278;SDS011;20538;51.528;9.942;2024-01-15T05:38:15;9.18;;;2.75;;
34278;SDS011;20538;51.528;9.942;2024-01-15T05:40:41;7.00;;;2.53;;
34278;SDS011;20538;51.528;9.942;2024-01-15T05:43:07;5.05;;;2.15;;
34278;SDS011;20538;51.528;9.942;2024-01-15T05:45:34;5.38;;;2.83;;
34278;SDS011;20538;51.528;9.942;2024-01-15T05:48:00;8.55;;;2.00;;
34278;SDS011;20538;51.528;9.942;2024-01-15T05:50:26;5.20;;;2.88;;
34278;SDS011;20538;51.528;9.942;2024-01-15T05:52:51;5.00;;;2.33;;
34278;SDS011;20538;51.528;9.942;2024-01-15T05:55:17;14.43;;;2.53;;
34278;SDS011;20538;51.528;9.942;2024-01-15T05:57:43;6.47;;;2.92;;
34278;SDS011;20538;51.528;9.942;2024-01-15T06:00:10;12.95;;;3.05;;
34278;SDS011;20538;51.528;9.942;2024-01-15T06:02:39;5.13;;;2.03;;
34278;SDS011;20538;51.528;9.942;2024-01-15T06:05:05;6.13;;;2.55;;
34278;SDS011;20538;51.528;9.942;2024-01-15T06:07:31;6.07;;;2.67;;
34278;SDS011;20538;51.528;9.942;2024-01-15T06:09:58;4.93;;;2.55;;
34278;SDS011;20538;51.528;9.942;2024-01-15T06:12:24;4.88;;;2.28;;
34278;SDS011;20538;51.528;9.942;2024-01-15T06:14:50;7.32;;;2.65;;
34278;SDS011;20538;51.528;9.942;2024-01-15T06:17:15;6.57;;;2.55;;
34278;SDS011;20538;51.528;9.942;2024-01-15T06:19:41;7.90;;;3.20;;
34278;SDS011;20538;51.528;9.942;2024-01-15T06:22:06;10.93;;;3.45;;
34278;SDS011;20538;51.528;9.942;2024-01-15T06:24:32;9.55;;;3.33;;
34278;SDS011;20538;51.528;9.942;2024-01-15T06:26:58;6.78;;;3.28;;
34278;SDS011;20538;51.528;9.942;2024-01-15T06:29:25;8.23;;;2.75;;
34278;SDS011;20538;51.528;9.942;2024-01-15T06:31:52;8.02;;;2.92;;
34278;SDS011;20538;51.528;9.942;2024-01-15T06:34:18;5.55;;;2.53;;
34278;SDS011;20538;51.528;9.942;2024-01-15T06:36:43;8.00;;;3.25;;
34278;SDS011;20538;51.528;9.942;2024-01-15T06:39:09;8.15;;;2.55;;
34278;SDS011;20538;51.528;9.942;2024-01-15T06:41:35;5.45;;;3.10;;
34278;SDS011;20538;51.528;9.942;2024-01-15T06:44:08;12.45;;;4.05;;
34278;SDS011;20538;51.528;9.942;2024-01-15T06:46:36;9.45;;;3.45;;
34278;SDS011;20538;51.528;9.942;2024-01-15T06:49:07;6.78;;;2.53;;
34278;SDS011;20538;51.528;9.942;2024-01-15T06:51:32;10.05;;;2.50;;
34278;SDS011;20538;51.528;9.942;2024-01-15T06:53:58;5.25;;;2.35;;
34278;SDS011;20538;51.528;9.942;2024-01-15T06:56:23;4.63;;;2.75;;
34278;SDS011;20538;51.528;9.942;2024-01-15T06:58:49;12.07;;;3.67;;
34278;SDS011;20538;51.528;9.942;2024-01-15T07:01:14;4.85;;;2.08;;
34278;SDS011;20538;51.528;9.942;2024-01-15T07:03:40;6.50;;;2.78;;
34278;SDS011;20538;51.528;9.942;2024-01-15T07:06:06;3.40;;;1.73;;
34278;SDS011;20538;51.528;9.942;2024-01-15T07:08:32;2.60;;;1.52;;
34278;SDS011;20538;51.528;9.942;2024-01-15T07:10:57;6.15;;;2.58;;
34278;SDS011;20538;51.528;9.942;2024-01-15T07:13:25;7.57;;;2.42;;
34278;SDS011;20538;51.528;9.942;2024-01-15T07:15:51;6.45;;;2.20;;
34278;SDS011;20538;51.528;9.942;2024-01-15T07:18:16;8.73;;;2.47;;
34278;SDS011;20538;51.528;9.942;2024-01-15T07:20:42;9.10;;;2.63;;
34278;SDS011;20538;51.528;9.942;2024-01-15T07:23:08;8.07;;;2.50;;
34278;SDS011;20538;51.528;9.942;2024-01-15T07:25:34;6.00;;;2.80;;
34278;SDS011;20538;51.528;9.942;2024-01-15T07:27:59;4.70;;;2.67;;
34278;SDS011;20538;51.528;9.942;2024-01-15T07:30:25;10.15;;;3.47;;
34278;SDS011;20538;51.528;9.942;2024-01-15T07:32:50;7.18;;;3.00;;
34278;SDS011;20538;51.528;9.942;2024-01-15T07:35:17;4.95;;;2.70;;
34278;SDS011;20538;51.528;9.942;2024-01-15T07:37:43;5.18;;;2.42;;
34278;SDS011;20538;51.528;9.942;2024-01-15T07:40:09;6.13;;;2.83;;
34278;SDS011;20538;51.528;9.942;2024-01-15T07:42:35;7.13;;;2.90;;
34278;SDS011;20538;51.528;9.942;2024-01-15T07:45:01;5.97;;;3.40;;
34278;SDS011;20538;51.528;9.942;2024-01-15T07:47:27;10.35;;;3.40;;
34278;SDS011;20538;51.528;9.942;2024-01-15T07:49:53;8.05;;;3.50;;
34278;SDS011;20538;51.528;9.942;2024-01-15T07:52:19;9.50;;;3.53;;
34278;SDS011;20538;51.528;9.942;2024-01-15T07:54:45;15.23;;;4.32;;
34278;SDS011;20538;51.528;9.942;2024-01-15T07:57:10;12.75;;;4.30;;
34278;SDS011;20538;51.528;9.942;2024-01-15T07:59:36;10.20;;;3.92;;
34278;SDS011;20538;51.528;9.942;2024-01-15T08:02:02;14.38;;;4.55;;
34278;SDS011;20538;51.528;9.942;2024-01-15T08:04:28;20.65;;;6.35;;
34278;SDS011;20538;51.528;9.942;2024-01-15T08:06:54;14.13;;;5.18;;
34278;SDS011;20538;51.528;9.942;2024-01-15T08:09:19;10.60;;;4.57;;
34278;SDS011;20538;51.528;9.942;2024-01-15T08:11:45;11.20;;;3.65;;
34278;SDS011;20538;51.528;9.942;2024-01-15T08:14:11;8.25;;;3.83;;
34278;SDS011;20538;51.528;9.942;2024-01-15T08:16:37;15.52;;;3.42;;
34278;SDS011;20538;51.528;9.942;2024-01-15T08:19:03;5.13;;;3.28;;
34278;SDS011;20538;51.528;9.942;2024-01-15T08:21:28;7.82;;;2.63;;
34278;SDS011;20538;51.528;9.942;2024-01-15T08:23:57;5.93;;;3.08;;
34278;SDS011;20538;51.528;9.942;2024-01-15T08:26:29;5.88;;;2.42;;
34278;SDS011;20538;51.528;9.942;2024-01-15T08:28:55;4.45;;;2.00;;
34278;SDS011;20538;51.528;9.942;2024-01-15T08:31:20;6.60;;;3.08;;
34278;SDS011;20538;51.528;9.942;2024-01-15T08:33:46;6.57;;;2.47;;
34278;SDS011;20538;51.528;9.942;2024-01-15T08:36:12;7.82;;;3.35;;
34278;SDS011;20538;51.528;9.942;2024-01-15T08:38:38;10.27;;;2.83;;
34278;SDS011;20538;51.528;9.942;2024-01-15T08:41:03;4.22;;;2.42;;
34278;SDS011;20538;51.528;9.942;2024-01-15T08:43:29;8.25;;;2.78;;
34278;SDS011;20538;51.528;9.942;2024-01-15T08:45:57;6.90;;;2.90;;
34278;SDS011;20538;51.528;9.942;2024-01-15T08:48:24;12.55;;;3.25;;
34278;SDS011;20538;51.528;9.942;2024-01-15T08:50:52;4.88;;;2.42;;
34278;SDS011;20538;51.528;9.942;2024-01-15T08:53:18;10.60;;;3.20;;
34278;SDS011;20538;51.528;9.942;2024-01-15T08:55:43;7.13;;;3.10;;
34278;SDS011;20538;51.528;9.942;2024-01-15T08:58:09;6.70;;;3.35;;
34278;SDS011;20538;51.528;9.942;2024-01-15T09:00:35;8.80;;;3.50;;
34278;SDS011;20538;51.528;9.942;2024-01-15T09:03:01;10.43;;;3.20;;
34278;SDS011;20538;51.528;9.942;2024-01-15T09:05:27;11.50;;;4.50;;
34278;SDS011;20538;51.528;9.942;2024-01-15T09:07:53;7.18;;;3.55;;
34278;SDS011;20538;51.528;9.942;2024-01-15T09:10:19;10.48;;;3.63;;
34278;SDS011;20538;51.528;9.942;2024-01-15T09:12:45;11.35;;;3.90;;
34278;SDS011;20538;51.528;9.942;2024-01-15T09:15:11;8.52;;;3.63;;
34278;SDS011;20538;51.528;9.942;2024-01-15T09:17:37;6.88;;;3.63;;
34278;SDS011;20538;51.528;9.942;2024-01-15T09:20:02;9.38;;;3.83;;
34278;SDS011;20538;51.528;9.942;2024-01-15T09:22:31;7.47;;;3.85;;
34278;SDS011;20538;51.528;9.942;2024-01-15T09:24:57;7.85;;;3.63;;
34278;SDS011;20538;51.528;9.942;2024-01-15T09:27:23;9.18;;;3.75;;
34278;SDS011;20538;51.528;9.942;2024-01-15T09:29:51;13.05;;;4.47;;
34278;SDS011;20538;51.528;9.942;2024-01-15T09:32:19;7.25;;;3.00;;
34278;SDS011;20538;51.528;9.942;2024-01-15T09:34:45;8.68;;;3.67;;
34278;SDS011;20538;51.528;9.942;2024-01-15T09:37:11;13.63;;;4.18;;
34278;SDS011;20538;51.528;9.942;2024-01-15T09:39:37;15.95;;;4.55;;
34278;SDS011;20538;51.528;9.942;2024-01-15T09:42:03;8.70;;;3.08;;
34278;SDS011;20538;51.528;9.942;2024-01-15T09:44:29;14.50;;;3.83;;
34278;SDS011;20538;51.528;9.942;2024-01-15T09:46:55;13.15;;;3.83;;
34278;SDS011;20538;51.528;9.942;2024-01-15T09:49:22;10.95;;;5.05;;
34278;SDS011;20538;51.528;9.942;2024-01-15T09:51:48;9.98;;;4.15;;
34278;SDS011;20538;51.528;9.942;2024-01-15T09:54:14;8.63;;;3.17;;
34278;SDS011;20538;51.528;9.942;2024-01-15T09:56:42;6.35;;;3.58;;
34278;SDS011;20538;51.528;9.942;2024-01-15T09:59:17;6.90;;;2.88;;
34278;SDS011;20538;51.528;9.942;2024-01-15T10:01:44;10.13;;;3.22;;
34278;SDS011;20538;51.528;9.942;2024-01-15T10:04:13;10.73;;;4.60;;
34278;SDS011;20538;51.528;9.942;2024-01-15T10:06:39;7.50;;;3.50;;
34278;SDS011;20538;51.528;9.942;2024-01-15T10:09:10;7.65;;;3.58;;
34278;SDS011;20538;51.528;9.942;2024-01-15T10:11:39;6.35;;;2.80;;
34278;SDS011;20538;51.528;9.942;2024-01-15T10:14:09;9.70;;;3.13;;
34278;SDS011;20538;51.528;9.942;2024-01-15T10:16:37;8.63;;;3.67;;
34278;SDS011;20538;51.528;9.942;2024-01-15T10:19:06;5.65;;;2.95;;
34278;SDS011;20538;51.528;9.942;2024-01-15T10:21:33;7.50;;;3.42;;
34278;SDS011;20538;51.528;9.942;2024-01-15T10:24:00;12.20;;;3.97;;
34278;SDS011;20538;51.528;9.942;2024-01-15T10:26:26;6.00;;;3.42;;
34278;SDS011;20538;51.528;9.942;2024-01-15T10:28:52;6.90;;;2.95;;
34278;SDS011;20538;51.528;9.942;2024-01-15T10:31:17;5.90;;;2.47;;
34278;SDS011;20538;51.528;9.942;2024-01-15T10:33:44;7.70;;;3.75;;
34278;SDS011;20538;51.528;9.942;2024-01-15T10:36:10;7.63;;;3.83;;
34278;SDS011;20538;51.528;9.942;2024-01-15T10:38:38;9.27;;;3.60;;
34278;SDS011;20538;51.528;9.942;2024-01-15T10:41:04;6.63;;;2.97;;
34278;SDS011;20538;51.528;9.942;2024-01-15T10:43:29;3.88;;;1.83;;
34278;SDS011;20538;51.528;9.942;2024-01-15T10:45:55;5.95;;;2.45;;
34278;SDS011;20538;51.528;9.942;2024-01-15T10:48:21;8.30;;;3.17;;
34278;SDS011;20538;51.528;9.942;2024-01-15T10:50:47;8.15;;;3.50;;
34278;SDS011;20538;51.528;9.942;2024-01-15T10:53:13;5.13;;;2.00;;
34278;SDS011;20538;51.528;9.942;2024-01-15T10:55:41;2.85;;;1.60;;
34278;SDS011;20538;51.528;9.942;2024-01-15T10:58:08;5.10;;;1.85;;
34278;SDS011;20538;51.528;9.942;2024-01-15T11:00:34;7.00;;;1.77;;
34278;SDS011;20538;51.528;9.942;2024-01-15T11:03:02;2.53;;;1.58;;
34278;SDS011;20538;51.528;9.942;2024-01-15T11:05:33;2.58;;;1.30;;
34278;SDS011;20538;51.528;9.942;2024-01-15T11:08:05;1.20;;;1.05;;
34278;SDS011;20538;51.528;9.942;2024-01-15T11:10:45;3.20;;;1.25;;
34278;SDS011;20538;51.528;9.942;2024-01-15T11:16:05;4.90;;;1.83;;
34278;SDS011;20538;51.528;9.942;2024-01-15T11:21:23;5.90;;;2.28;;
34278;SDS011;20538;51.528;9.942;2024-01-15T11:29:03;6.47;;;3.03;;
34278;SDS011;20538;51.528;9.942;2024-01-15T11:34:08;9.30;;;3.40;;
34278;SDS011;20538;51.528;9.942;2024-01-15T11:41:56;6.85;;;2.72;;
34278;SDS011;20538;51.528;9.942;2024-01-15T11:44:23;8.73;;;3.90;;
34278;SDS011;20538;51.528;9.942;2024-01-15T11:47:07;3.92;;;2.30;;
34278;SDS011;20538;51.528;9.942;2024-01-15T11:52:25;7.97;;;1.83;;
34278;SDS011;20538;51.528;9.942;2024-01-15T11:57:54;2.03;;;1.10;;
34278;SDS011;20538;51.528;9.942;2024-01-15T12:00:22;7.60;;;1.63;;
34278;SDS011;20538;51.528;9.942;2024-01-15T12:02:48;1.98;;;0.88;;
34278;SDS011;20538;51.528;9.942;2024-01-15T12:05:16;8.95;;;1.10;;
34278;SDS011;20538;51.528;9.942;2024-01-15T12:07:43;1.40;;;0.80;;
34278;SDS011;20538;51.528;9.942;2024-01-15T12:10:14;1.40;;;1.02;;
34278;SDS011;20538;51.528;9.942;2024-01-15T12:12:47;1.52;;;1.10;;
34278;SDS011;20538;51.528;9.942;2024-01-15T12:15:28;4.65;;;1.35;;
34278;SDS011;20538;51.528;9.942;2024-01-15T12:17:55;1.90;;;1.13;;
34278;SDS011;20538;51.528;9.942;2024-01-15T12:20:25;1.63;;;1.23;;
34278;SDS011;20538;51.528;9.942;2024-01-15T12:22:52;2.30;;;1.73;;
34278;SDS011;20538;51.528;9.942;2024-01-15T12:25:18;2.15;;;1.45;;
34278;SDS011;20538;51.528;9.942;2024-01-15T12:27:44;2.65;;;1.42;;
34278;SDS011;20538;51.528;9.942;2024-01-15T12:30:11;2.00;;;1.60;;
34278;SDS011;20538;51.528;9.942;2024-01-15T12:32:38;3.75;;;1.65;;
34278;SDS011;20538;51.528;9.942;2024-01-15T12:35:04;6.78;;;1.92;;
34278;SDS011;20538;51.528;9.942;2024-01-15T12:37:30;2.25;;;1.45;;
34278;SDS011;20538;51.528;9.942;2024-01-15T12:39:56;8.43;;;1.90;;
34278;SDS011;20538;51.528;9.942;2024-01-15T12:42:24;14.10;;;2.00;;
34278;SDS011;20538;51.528;9.942;2024-01-15T12:44:50;2.17;;;1.27;;
34278;SDS011;20538;51.528;9.942;2024-01-15T12:47:16;2.65;;;1.20;;
34278;SDS011;20538;51.528;9.942;2024-01-15T12:49:46;2.25;;;1.60;;
34278;SDS011;20538;51.528;9.942;2024-01-15T12:52:15;2.13;;;1.40;;
34278;SDS011;20538;51.528;9.942;2024-01-15T12:54:41;2.45;;;1.52;;
34278;SDS011;20538;51.528;9.942;2024-01-15T12:57:06;3.75;;;1.85;;
34278;SDS011;20538;51.528;9.942;2024-01-15T12:59:32;7.57;;;1.77;;
34278;SDS011;20538;51.528;9.942;2024-01-15T13:01:58;2.05;;;1.70;;
34278;SDS011;20538;51.528;9.942;2024-01-15T13:04:24;2.03;;;1.27;;
34278;SDS011;20538;51.528;9.942;2024-01-15T13:06:50;4.30;;;1.75;;
34278;SDS011;20538;51.528;9.942;2024-01-15T13:09:16;5.05;;;1.98;;
34278;SDS011;20538;51.528;9.942;2024-01-15T13:11:43;10.57;;;1.52;;
34278;SDS011;20538;51.528;9.942;2024-01-15T13:14:12;5.93;;;1.95;;
34278;SDS011;20538;51.528;9.942;2024-01-15T13:16:39;15.30;;;1.60;;
34278;SDS011;20538;51.528;9.942;2024-01-15T13:19:06;5.65;;;1.77;;
34278;SDS011;20538;51.528;9.942;2024-01-15T13:21:33;3.83;;;1.90;;
34278;SDS011;20538;51.528;9.942;2024-01-15T13:23:59;8.50;;;2.00;;
34278;SDS011;20538;51.528;9.942;2024-01-15T13:26:24;2.00;;;1.23;;
34278;SDS011;20538;51.528;9.942;2024-01-15T13:28:50;2.42;;;1.33;;
34278;SDS011;20538;51.528;9.942;2024-01-15T13:31:16;2.33;;;1.50;;
34278;SDS011;20538;51.528;9.942;2024-01-15T13:33:41;2.17;;;1.35;;
34278;SDS011;20538;51.528;9.942;2024-01-15T13:36:07;2.75;;;1.75;;
34278;SDS011;20538;51.528;9.942;2024-01-15T13:38:35;1.65;;;1.55;;
34278;SDS011;20538;51.528;9.942;2024-01-15T13:41:04;5.45;;;1.55;;
34278;SDS011;20538;51.528;9.942;2024-01-15T13:43:31;1.98;;;1.48;;
34278;SDS011;20538;51.528;9.942;2024-01-15T13:45:57;2.85;;;1.65;;
34278;SDS011;20538;51.528;9.942;2024-01-15T13:48:23;9.63;;;1.25;;
34278;SDS011;20538;51.528;9.942;2024-01-15T13:50:49;4.78;;;1.48;;
34278;SDS011;20538;51.528;9.942;2024-01-15T13:53:15;10.25;;;1.60;;
34278;SDS011;20538;51.528;9.942;2024-01-15T13:55:41;2.80;;;1.35;;
34278;SDS011;20538;51.528;9.942;2024-01-15T13:58:07;4.10;;;1.33;;
34278;SDS011;20538;51.528;9.942;2024-01-15T14:00:33;9.43;;;2.08;;
34278;SDS011;20538;51.528;9.942;2024-01-15T14:02:58;3.72;;;1.58;;
34278;SDS011;20538;51.528;9.942;2024-01-15T14:05:24;3.08;;;1.42;;
34278;SDS011;20538;51.528;9.942;2024-01-15T14:07:49;3.97;;;1.65;;
34278;SDS011;20538;51.528;9.942;2024-01-15T14:10:15;5.22;;;1.90;;
34278;SDS011;20538;51.528;9.942;2024-01-15T14:12:41;5.03;;;1.10;;
34278;SDS011;20538;51.528;9.942;2024-01-15T14:15:06;3.38;;;1.67;;
34278;SDS011;20538;51.528;9.942;2024-01-15T14:17:33;5.55;;;1.45;;
34278;SDS011;20538;51.528;9.942;2024-01-15T14:19:58;3.20;;;1.60;;
34278;SDS011;20538;51.528;9.942;2024-01-15T14:22:24;1.95;;;1.33;;
34278;SDS011;20538;51.528;9.942;2024-01-15T14:24:50;14.68;;;1.75;;
34278;SDS011;20538;51.528;9.942;2024-01-15T14:27:16;5.07;;;1.90;;
34278;SDS011;20538;51.528;9.942;2024-01-15T14:29:42;4.95;;;2.13;;
34278;SDS011;20538;51.528;9.942;2024-01-15T14:32:07;5.10;;;1.52;;
34278;SDS011;20538;51.528;9.942;2024-01-15T14:34:33;6.95;;;1.60;;
34278;SDS011;20538;51.528;9.942;2024-01-15T14:37:01;1.50;;;1.20;;
34278;SDS011;20538;51.528;9.942;2024-01-15T14:39:26;5.10;;;1.48;;
34278;SDS011;20538;51.528;9.942;2024-01-15T14:41:52;2.92;;;1.90;;
34278;SDS011;20538;51.528;9.942;2024-01-15T14:44:18;1.60;;;1.30;;
34278;SDS011;20538;51.528;9.942;2024-01-15T14:46:44;2.85;;;1.50;;
34278;SDS011;20538;51.528;9.942;2024-01-15T14:49:10;2.67;;;1.45;;
34278;SDS011;20538;51.528;9.942;2024-01-15T14:51:36;3.40;;;1.92;;
34278;SDS011;20538;51.528;9.942;2024-01-15T14:54:02;5.78;;;1.80;;
34278;SDS011;20538;51.528;9.942;2024-01-15T14:56:27;5.40;;;1.30;;
34278;SDS011;20538;51.528;9.942;2024-01-15T14:58:54;6.45;;;2.35;;
34278;SDS011;20538;51.528;9.942;2024-01-15T15:01:19;2.35;;;1.55;;
34278;SDS011;20538;51.528;9.942;2024-01-15T15:03:45;4.45;;;1.73;;
34278;SDS011;20538;51.528;9.942;2024-01-15T15:06:11;2.30;;;1.55;;